Time;durP1;ratioP1;P1;durP2;ratioP2;P2;SDS_P1;SDS_P2;PMS_P1;PMS_P2;Temp;Humidity;BMP_temperature;BMP_pressure;BME280_temperature;BME280_humidity;BME280_pressure;Samples;Min_cycle;Max_cycle;Signal;HPM_P1;HPM_P2
2023/06/22 00:01:26;;;;;;;7.80;7.00;;;;;;;20.33;72.61;99687.14;107095;1257;67976;-39
2023/06/22 00:03:54;;;;;;;8.30;7.10;;;;;;;20.31;73.13;99684.80;107122;1257;72698;-40
2023/06/22 00:06:21;;;;;;;11.10;7.30;;;;;;;20.33;73.07;99690.35;107124;1257;59674;-40
2023/06/22 00:08:49;;;;;;;8.20;6.60;;;;;;;20.34;73.18;99692.39;107080;1261;59512;-40
2023/06/22 00:11:17;;;;;;;8.90;7.20;;;;;;;20.31;73.04;99692.28;107071;1256;73087;-40
2023/06/22 00:13:44;;;;;;;9.60;7.70;;;;;;;20.30;72.88;99696.61;107194;1257;68041;-40
2023/06/22 00:16:12;;;;;;;8.10;6.90;;;;;;;20.25;73.01;99694.63;107215;1257;72696;-40
2023/06/22 00:18:39;;;;;;;8.20;7.00;;;;;;;20.22;72.77;99693.41;107100;1256;60807;-39
2023/06/22 00:21:08;;;;;;;7.70;6.80;;;;;;;20.21;72.76;99697.04;107071;1256;59339;-40
2023/06/22 00:23:36;;;;;;;8.90;6.80;;;;;;;20.19;72.62;99695.42;107211;1256;73060;-40
2023/06/22 00:26:04;;;;;;;8.80;7.20;;;;;;;20.16;72.85;99701.67;107195;1256;66655;-40
2023/06/22 00:28:31;;;;;;;7.90;6.80;;;;;;;20.15;72.88;99696.11;107387;1257;72088;-40
2023/06/22 00:31:01;;;;;;;;;;;;;;;20.12;72.92;99702.52;107266;1260;60411;-40
2023/06/22 00:33:29;;;;;;;7.60;6.70;;;;;;;20.10;73.26;99702.86;107352;1256;59797;-40
2023/06/22 00:35:57;;;;;;;9.10;7.00;;;;;;;20.09;73.42;99703.35;107179;1257;73136;-40
2023/06/22 00:38:25;;;;;;;8.40;7.30;;;;;;;20.11;73.32;99706.55;107401;1256;67900;-40
2023/06/22 00:40:52;;;;;;;10.00;7.60;;;;;;;20.11;73.47;99709.77;107276;1256;72660;-40
2023/06/22 00:43:20;;;;;;;8.60;7.20;;;;;;;20.10;73.37;99708.77;107365;1259;59469;-40
2023/06/22 00:45:48;;;;;;;9.40;7.70;;;;;;;20.07;73.39;99707.33;107364;1256;59509;-40
2023/06/22 00:48:18;;;;;;;8.20;7.40;;;;;;;20.07;73.35;99706.61;107232;1255;71763;-40
2023/06/22 00:50:50;;;;;;;10.60;9.20;;;;;;;20.11;72.99;99712.85;107270;1257;66294;-40
2023/06/22 00:53:18;;;;;;;10.50;9.10;;;;;;;20.10;72.47;99709.63;107242;1255;72735;-40
2023/06/22 00:55:51;;;;;;;10.30;8.80;;;;;;;20.08;72.39;99709.73;107149;1257;59773;-40
2023/06/22 00:58:21;;;;;;;11.30;9.30;;;;;;;20.05;72.27;99712.29;107281;1260;59141;-40
2023/06/22 01:00:49;;;;;;;13.40;9.60;;;;;;;20.01;72.09;99713.69;107367;1256;73351;-40
2023/06/22 01:03:18;;;;;;;13.20;9.80;;;;;;;20.01;71.67;99716.52;107376;1257;66415;-40
2023/06/22 01:05:46;;;;;;;11.30;10.10;;;;;;;20.02;71.32;99718.95;107358;1258;72286;-40
2023/06/22 01:08:31;;;;;;;13.40;11.30;;;;;;;19.97;71.22;99716.33;107456;1256;59688;-39
2023/06/22 01:11:20;;;;;;;13.80;10.60;;;;;;;19.93;71.21;99712.23;107356;1255;60053;-39
2023/06/22 01:14:08;;;;;;;13.60;11.10;;;;;;;19.88;71.47;99712.13;107391;1259;73054;-39
2023/06/22 01:16:37;;;;;;;14.00;11.00;;;;;;;19.81;71.18;99715.67;107224;1256;66334;-39
2023/06/22 01:19:16;;;;;;;13.10;10.80;;;;;;;19.78;71.04;99715.26;107289;1257;72711;-39
2023/06/22 01:21:44;;;;;;;14.50;11.90;;;;;;;19.77;70.95;99721.95;107140;1257;60065;-40
2023/06/22 01:24:22;;;;;;;13.40;11.80;;;;;;;19.73;70.75;99719.48;107052;1256;59482;-40
2023/06/22 01:26:59;;;;;;;13.40;10.70;;;;;;;19.67;70.79;99720.42;107263;1256;71783;-40
2023/06/22 01:29:42;;;;;;;13.00;11.60;;;;;;;19.60;70.75;99720.82;107231;1256;67948;-41
2023/06/22 01:32:11;;;;;;;12.80;10.70;;;;;;;19.52;70.75;99722.39;107173;1262;73060;-41
2023/06/22 01:34:40;;;;;;;11.80;9.90;;;;;;;19.50;70.70;99722.20;107256;1256;61725;-40
2023/06/22 01:37:08;;;;;;;14.90;10.80;;;;;;;19.51;70.63;99724.14;107149;1257;60039;-40
2023/06/22 01:39:35;;;;;;;12.70;9.80;;;;;;;19.48;70.67;99722.52;107047;1256;73382;-39
2023/06/22 01:42:05;;;;;;;12.80;9.90;;;;;;;19.45;70.80;99721.70;107110;1256;68370;-40
2023/06/22 01:44:32;;;;;;;11.20;9.30;;;;;;;19.39;70.88;99720.80;106987;1257;71415;-39
2023/06/22 01:47:00;;;;;;;10.30;8.50;;;;;;;19.33;70.66;99717.40;107223;1260;61717;-40
2023/06/22 01:49:27;;;;;;;11.30;8.90;;;;;;;19.31;70.80;99717.59;107169;1256;60029;-40
2023/06/22 01:51:55;;;;;;;11.00;8.70;;;;;;;19.31;70.74;99707.52;106972;1256;73049;-40
2023/06/22 01:54:23;;;;;;;10.60;8.70;;;;;;;19.29;70.72;99708.98;107221;1257;67599;-40
2023/06/22 01:56:51;;;;;;;10.90;9.00;;;;;;;19.25;70.71;99713.26;107160;1256;71357;-40
2023/06/22 01:59:42;;;;;;;13.10;9.60;;;;;;;19.23;70.88;99708.41;107034;1256;59506;-40
2023/06/22 02:02:11;;;;;;;12.10;9.20;;;;;;;19.19;70.87;99708.98;107091;1256;59516;-40
2023/06/22 02:04:52;;;;;;;12.40;9.30;;;;;;;19.18;70.86;99709.95;107224;1256;73051;-40
2023/06/22 02:07:23;;;;;;;11.20;9.70;;;;;;;19.18;70.79;99712.38;107122;1262;67680;-41
2023/06/22 02:09:52;;;;;;;11.60;10.20;;;;;;;19.16;71.04;99711.54;107087;1256;75002;-40
2023/06/22 02:12:22;;;;;;;14.10;10.50;;;;;;;19.14;70.94;99710.14;107053;1262;59638;-40
2023/06/22 02:14:51;;;;;;;12.50;10.60;;;;;;;19.12;71.02;99712.14;107151;1256;59501;-40
2023/06/22 02:17:19;;;;;;;12.70;10.40;;;;;;;19.09;71.04;99714.36;107017;1256;73070;-40
2023/06/22 02:19:47;;;;;;;14.60;10.00;;;;;;;19.09;71.20;99713.25;107151;1256;66305;-40
2023/06/22 02:22:14;;;;;;;13.30;10.70;;;;;;;19.14;71.05;99713.15;107205;1260;70827;-40
2023/06/22 02:24:44;;;;;;;13.50;10.90;;;;;;;19.16;71.43;99713.83;107156;1257;59702;-40
2023/06/22 02:27:12;;;;;;;12.30;11.00;;;;;;;19.16;71.43;99711.31;107090;1256;60467;-40
2023/06/22 02:29:40;;;;;;;12.20;10.90;;;;;;;19.14;71.50;99709.44;107173;1256;73020;-40
2023/06/22 02:32:10;;;;;;;12.90;10.80;;;;;;;19.15;71.82;99708.65;107186;1260;65458;-40
2023/06/22 02:34:38;;;;;;;11.40;10.20;;;;;;;19.18;71.79;99703.83;107324;1256;71857;-40
2023/06/22 02:37:06;;;;;;;14.90;11.00;;;;;;;19.24;72.04;99705.81;107250;1256;60620;-40
2023/06/22 02:39:34;;;;;;;13.50;11.30;;;;;;;19.27;72.41;99706.00;107259;1255;60416;-40
2023/06/22 02:42:02;;;;;;;14.10;11.00;;;;;;;19.30;72.63;99706.92;107194;1257;73876;-40
2023/06/22 02:44:31;;;;;;;16.30;11.60;;;;;;;19.32;72.95;99706.89;107141;1260;67733;-41
2023/06/22 02:47:00;;;;;;;14.50;10.20;;;;;;;19.31;73.35;99709.89;107114;1257;71481;-40
2023/06/22 02:49:30;;;;;;;14.10;9.60;;;;;;;19.37;73.59;99711.63;107116;1256;63289;-41
2023/06/22 02:51:58;;;;;;;12.10;10.20;;;;;;;19.45;73.78;99710.61;107255;1256;60495;-40
2023/06/22 02:54:29;;;;;;;13.10;11.00;;;;;;;19.50;74.09;99716.06;107090;1256;72563;-52
2023/06/22 02:57:03;;;;;;;15.10;11.20;;;;;;;19.52;74.02;99713.84;107162;1256;69747;-41
2023/06/22 02:59:32;;;;;;;12.80;11.20;;;;;;;19.55;74.09;99712.79;107038;1257;72663;-42
2023/06/22 03:02:07;;;;;;;15.60;12.10;;;;;;;19.53;73.90;99716.66;107136;1257;61102;-41
2023/06/22 03:04:35;;;;;;;14.70;11.10;;;;;;;19.57;74.22;99716.23;107113;1256;60309;-40
2023/06/22 03:07:03;;;;;;;14.00;12.20;;;;;;;19.64;73.89;99718.17;106991;1256;72568;-41
2023/06/22 03:09:32;;;;;;;14.40;12.10;;;;;;;19.67;74.03;99720.50;107188;1257;68019;-40
2023/06/22 03:12:02;;;;;;;12.90;11.60;;;;;;;19.70;74.26;99718.98;107272;1259;71494;-40
2023/06/22 03:14:42;;;;;;;13.20;11.80;;;;;;;19.74;74.40;99723.48;107091;1255;60319;-40
2023/06/22 03:17:10;;;;;;;12.50;11.10;;;;;;;19.78;74.49;99721.55;107157;1256;60587;-40
2023/06/22 03:19:38;;;;;;;13.10;11.70;;;;;;;19.87;74.30;99725.13;107235;1256;73934;-40
2023/06/22 03:22:07;;;;;;;13.20;11.80;;;;;;;19.94;74.46;99725.34;107184;1260;67577;-40
2023/06/22 03:24:37;;;;;;;13.50;12.10;;;;;;;20.01;74.32;99727.61;107224;1256;72755;-40
2023/06/22 03:27:05;;;;;;;15.80;11.90;;;;;;;20.07;74.65;99734.36;107344;1256;60346;-40
2023/06/22 03:29:34;;;;;;;12.90;11.50;;;;;;;20.13;74.97;99735.92;107264;1256;60425;-40
2023/06/22 03:32:04;;;;;;;12.30;11.00;;;;;;;20.20;75.05;99739.14;107057;1256;72563;-40
2023/06/22 03:34:38;;;;;;;12.40;11.10;;;;;;;20.31;74.90;99739.08;107042;1256;67673;-40
2023/06/22 03:37:06;;;;;;;13.90;12.00;;;;;;;20.40;74.83;99743.30;107058;1257;72689;-40
2023/06/22 03:39:33;;;;;;;15.10;12.70;;;;;;;20.44;74.63;99744.89;107067;1257;60443;-40
2023/06/22 03:42:02;;;;;;;14.60;12.50;;;;;;;20.47;74.12;99746.57;107194;1255;60499;-41
2023/06/22 03:44:30;;;;;;;14.90;13.20;;;;;;;20.50;74.10;99744.73;107151;1256;73886;-39
2023/06/22 03:47:10;;;;;;;14.80;12.90;;;;;;;20.57;74.04;99746.02;107096;1260;66619;-39
2023/06/22 03:49:38;;;;;;;14.90;13.30;;;;;;;20.66;73.63;99750.13;107125;1256;71514;-40
2023/06/22 03:52:06;;;;;;;16.10;13.30;;;;;;;20.66;72.83;99747.05;107129;1256;60521;-40
2023/06/22 03:54:34;;;;;;;14.40;12.90;;;;;;;20.69;73.24;99746.46;107138;1256;60306;-40
2023/06/22 03:57:02;;;;;;;15.50;13.10;;;;;;;20.74;73.64;99746.94;107066;1256;73907;-40
2023/06/22 03:59:29;;;;;;;16.30;12.40;;;;;;;20.79;73.54;99751.25;107150;1260;66588;-40
2023/06/22 04:01:57;;;;;;;15.50;13.00;;;;;;;20.87;73.55;99754.20;107177;1256;71387;-40
2023/06/22 04:04:25;;;;;;;15.90;13.20;;;;;;;20.92;72.57;99756.31;107283;1257;60286;-42
2023/06/22 04:06:54;;;;;;;14.00;12.60;;;;;;;20.98;71.82;99759.69;107081;1256;60253;-41
2023/06/22 04:09:21;;;;;;;15.30;12.80;;;;;;;21.04;71.71;99758.86;107265;1255;72540;-39
2023/06/22 04:11:49;;;;;;;14.50;10.70;;;;;;;21.10;71.51;99764.20;107144;1257;66785;-39
2023/06/22 04:14:17;;;;;;;13.70;11.40;;;;;;;21.16;71.71;99764.12;107326;1256;71453;-39
2023/06/22 04:16:44;;;;;;;14.00;12.60;;;;;;;21.21;71.45;99766.55;107151;1256;60377;-39
2023/06/22 04:19:16;;;;;;;15.30;13.70;;;;;;;21.24;71.67;99770.66;107233;1256;60425;-39
2023/06/22 04:21:44;;;;;;;15.40;13.90;;;;;;;21.24;71.03;99771.84;107195;1255;73851;-39
2023/06/22 04:24:12;;;;;;;16.20;14.60;;;;;;;21.23;71.46;99770.15;107207;1256;67076;-39
2023/06/22 04:26:41;;;;;;;15.80;14.00;;;;;;;21.22;72.17;99774.02;107143;1260;72330;-40
2023/06/22 04:29:09;;;;;;;15.70;14.00;;;;;;;21.28;72.55;99778.95;107204;1256;60439;-40
2023/06/22 04:31:43;;;;;;;18.90;15.40;;;;;;;21.34;73.33;99783.27;107372;1257;60394;-40
2023/06/22 04:34:11;;;;;;;19.30;16.40;;;;;;;21.35;74.05;99788.14;107264;1256;72750;-42
2023/06/22 04:36:40;;;;;;;20.20;17.50;;;;;;;21.36;73.46;99789.70;107255;1257;67663;-41
2023/06/22 04:39:09;;;;;;;19.70;17.60;;;;;;;21.38;72.91;99785.95;107132;1256;70654;-41
2023/06/22 04:41:44;;;;;;;20.10;18.00;;;;;;;21.42;72.79;99780.45;107178;1256;60774;-40
2023/06/22 04:44:25;;;;;;;19.50;17.40;;;;;;;21.47;72.57;99778.52;107173;1255;60655;-40
2023/06/22 04:46:59;;;;;;;20.40;18.20;;;;;;;21.55;72.60;99777.59;107210;1256;72573;-41
2023/06/22 04:49:32;;;;;;;21.30;19.10;;;;;;;21.62;72.49;99785.81;107208;1256;67828;-41
2023/06/22 04:52:07;;;;;;;20.80;18.70;;;;;;;21.70;72.35;99787.79;107240;1256;72676;-43
2023/06/22 04:54:38;;;;;;;20.20;18.10;;;;;;;21.73;72.41;99794.34;107082;1256;62091;-39
2023/06/22 04:57:09;;;;;;;19.30;17.30;;;;;;;21.79;72.63;99792.41;107221;1257;60070;-39
2023/06/22 04:59:38;;;;;;;20.70;18.50;;;;;;;21.89;72.23;99794.66;107249;1256;74142;-41
2023/06/22 05:02:07;;;;;;;20.20;18.10;;;;;;;21.96;72.05;99796.98;107209;1255;68302;-40
2023/06/22 05:04:38;;;;;;;21.90;19.60;;;;;;;22.00;71.99;99798.56;107096;1257;72683;-40
2023/06/22 05:07:07;;;;;;;23.90;19.40;;;;;;;22.05;72.00;99797.04;107045;1256;60460;-40
2023/06/22 05:09:34;;;;;;;20.00;18.10;;;;;;;22.09;72.03;99799.55;107058;1255;59686;-40
2023/06/22 05:12:04;;;;;;;20.10;17.90;;;;;;;22.16;71.66;99794.59;107020;1257;72642;-40
2023/06/22 05:14:34;;;;;;;20.20;18.20;;;;;;;22.21;71.35;99796.86;107177;1256;67902;-41
2023/06/22 05:17:03;;;;;;;20.30;18.20;;;;;;;22.26;71.33;99794.86;107095;1260;72673;-40
2023/06/22 05:19:33;;;;;;;20.80;18.70;;;;;;;22.30;71.40;99792.15;106932;1255;60415;-40
2023/06/22 05:22:02;;;;;;;20.60;18.40;;;;;;;22.35;70.90;99785.59;107177;1255;60253;-41
2023/06/22 05:24:30;;;;;;;19.90;17.80;;;;;;;22.45;70.74;99785.52;107172;1256;73853;-40
2023/06/22 05:26:57;;;;;;;19.70;17.80;;;;;;;22.62;70.72;99779.60;107173;1256;67877;-40
2023/06/22 05:29:26;;;;;;;20.00;18.00;;;;;;;22.72;70.21;99780.41;107235;1260;72695;-40
2023/06/22 05:31:54;;;;;;;19.20;17.30;;;;;;;22.78;69.58;99772.14;107265;1256;60457;-41
2023/06/22 05:34:22;;;;;;;20.40;18.50;;;;;;;22.83;69.28;99771.47;107289;1256;59303;-40
2023/06/22 05:36:49;;;;;;;21.50;18.70;;;;;;;22.86;68.82;99766.65;107259;1255;73876;-40
2023/06/22 05:39:17;;;;;;;19.30;17.40;;;;;;;22.91;68.51;99770.80;107258;1256;67574;-41
2023/06/22 05:41:45;;;;;;;19.40;17.50;;;;;;;22.98;68.19;99764.39;107225;1256;70967;-41
2023/06/22 05:44:13;;;;;;;20.50;18.30;;;;;;;23.05;68.09;99766.02;107300;1256;60390;-40
2023/06/22 05:46:44;;;;;;;22.00;19.80;;;;;;;23.14;68.07;99765.23;107256;1256;60299;-40
2023/06/22 05:49:12;;;;;;;21.50;19.20;;;;;;;23.15;68.04;99759.20;107239;1255;72605;-40
2023/06/22 05:51:40;;;;;;;20.30;18.30;;;;;;;23.21;67.96;99761.19;107233;1257;67909;-40
2023/06/22 05:54:08;;;;;;;20.00;16.90;;;;;;;23.31;67.76;99760.98;107231;1256;71512;-41
2023/06/22 05:56:36;;;;;;;18.60;16.80;;;;;;;23.46;67.36;99765.13;107247;1257;60431;-40
2023/06/22 05:59:04;;;;;;;19.70;17.80;;;;;;;23.56;66.31;99760.16;107160;1256;59245;-41
2023/06/22 06:01:34;;;;;;;20.40;18.40;;;;;;;23.65;65.84;99758.11;107168;1256;72585;-40
2023/06/22 06:04:03;;;;;;;18.90;17.10;;;;;;;23.71;65.70;99756.42;107236;1257;67602;-41
2023/06/22 06:06:32;;;;;;;19.30;17.40;;;;;;;23.78;64.24;99759.56;107219;1255;71362;-41
2023/06/22 06:08:59;;;;;;;21.00;18.00;;;;;;;23.81;63.62;99763.50;107187;1257;59656;-41
2023/06/22 06:11:27;;;;;;;18.00;16.30;;;;;;;23.83;64.02;99766.33;107234;1260;60439;-41
2023/06/22 06:13:55;;;;;;;18.10;16.40;;;;;;;23.88;63.77;99765.63;107287;1256;73902;-40
2023/06/22 06:16:22;;;;;;;19.00;17.10;;;;;;;23.94;63.97;99761.72;107237;1256;66795;-41
2023/06/22 06:18:50;;;;;;;18.30;16.50;;;;;;;24.00;64.35;99757.50;107294;1260;72626;-41
2023/06/22 06:21:18;;;;;;;17.20;15.50;;;;;;;24.06;63.59;99759.77;107256;1256;60262;-40
2023/06/22 06:23:47;;;;;;;18.40;16.60;;;;;;;24.11;62.20;99749.80;107272;1255;60284;-41
2023/06/22 06:26:16;;;;;;;17.80;16.10;;;;;;;24.20;62.23;99753.53;107273;1256;73893;-41
2023/06/22 06:28:44;;;;;;;18.40;16.70;;;;;;;24.26;61.20;99751.75;107282;1257;67591;-41
2023/06/22 06:31:12;;;;;;;17.50;15.20;;;;;;;24.32;61.14;99752.21;107159;1256;71957;-41
2023/06/22 06:33:39;;;;;;;18.10;16.30;;;;;;;24.39;59.77;99752.23;107333;1257;60373;-40
2023/06/22 06:36:08;;;;;;;18.10;16.20;;;;;;;24.44;60.26;99749.06;107285;1256;60293;-41
2023/06/22 06:38:36;;;;;;;17.30;14.40;;;;;;;24.49;60.73;99749.20;107280;1256;73901;-40
2023/06/22 06:41:03;;;;;;;15.20;13.70;;;;;;;24.56;58.86;99750.51;107164;1260;67596;-41
2023/06/22 06:43:31;;;;;;;15.80;14.40;;;;;;;24.64;57.78;99750.31;107221;1256;72708;-41
2023/06/22 06:45:58;;;;;;;16.80;15.30;;;;;;;24.72;58.19;99749.27;107174;1255;60489;-41
2023/06/22 06:48:26;;;;;;;14.80;13.20;;;;;;;24.79;58.42;99747.48;107210;1256;60463;-42
2023/06/22 06:50:54;;;;;;;15.40;13.80;;;;;;;24.83;57.39;99749.87;107246;1257;73899;-41
2023/06/22 06:53:22;;;;;;;16.00;14.50;;;;;;;24.89;57.62;99744.30;107345;1256;67871;-41
2023/06/22 06:55:49;;;;;;;14.50;13.10;;;;;;;24.98;57.27;99749.00;107209;1260;72725;-40
2023/06/22 06:58:17;;;;;;;15.40;13.90;;;;;;;25.07;57.44;99744.71;107232;1260;60444;-41
2023/06/22 07:00:45;;;;;;;16.40;14.80;;;;;;;25.16;56.68;99745.38;107368;1256;60413;-41
2023/06/22 07:03:12;;;;;;;15.30;13.90;;;;;;;25.21;55.92;99745.19;107266;1255;72590;-41
2023/06/22 07:05:40;;;;;;;16.20;14.20;;;;;;;25.29;55.03;99743.96;107263;1257;67644;-41
2023/06/22 07:08:08;;;;;;;17.70;15.50;;;;;;;25.38;55.80;99744.37;107209;1260;73361;-41
2023/06/22 07:10:36;;;;;;;17.60;15.80;;;;;;;25.44;56.50;99743.65;107237;1256;60413;-40
2023/06/22 07:13:04;;;;;;;17.10;15.40;;;;;;;25.55;56.75;99747.35;107346;1255;60354;-40
2023/06/22 07:15:31;;;;;;;18.60;15.10;;;;;;;25.63;56.58;99747.80;107368;1255;72569;-40
2023/06/22 07:17:59;;;;;;;15.90;14.50;;;;;;;25.68;55.79;99745.67;107253;1260;67653;-40
2023/06/22 07:20:27;;;;;;;17.50;15.70;;;;;;;25.74;56.11;99743.70;107313;1256;73137;-41
2023/06/22 07:22:55;;;;;;;16.30;14.70;;;;;;;25.81;55.51;99744.64;107124;1256;60659;-41
2023/06/22 07:25:23;;;;;;;15.40;13.90;;;;;;;25.86;55.29;99749.27;107117;1256;61323;-40
2023/06/22 07:27:57;;;;;;;15.00;13.50;;;;;;;25.96;54.97;99748.28;107205;1257;73940;-41
2023/06/22 07:30:25;;;;;;;14.10;12.70;;;;;;;26.07;53.50;99748.64;107321;1256;66306;-41
2023/06/22 07:32:52;;;;;;;15.20;13.70;;;;;;;26.17;51.60;99754.14;107183;1255;72646;-40
2023/06/22 07:35:20;;;;;;;14.30;12.70;;;;;;;26.26;50.53;99757.48;107158;1257;60548;-40
2023/06/22 07:37:55;;;;;;;13.90;12.60;;;;;;;26.32;50.39;99757.95;107247;1256;60015;-40
2023/06/22 07:40:26;;;;;;;14.10;12.50;;;;;;;26.43;50.33;99760.95;107112;1255;72951;-41
2023/06/22 07:42:54;;;;;;;13.50;12.20;;;;;;;26.52;49.96;99758.77;107121;1257;66520;-40
2023/06/22 07:45:22;;;;;;;14.30;12.80;;;;;;;26.61;50.00;99762.52;107086;1255;73684;-40
2023/06/22 07:47:50;;;;;;;15.50;13.40;;;;;;;26.69;50.14;99759.90;107138;1257;60405;-40
2023/06/22 07:50:18;;;;;;;14.80;13.40;;;;;;;26.79;50.69;99762.02;107330;1256;60307;-40
2023/06/22 07:52:47;;;;;;;14.80;13.40;;;;;;;26.91;50.77;99764.73;107249;1256;72668;-40
2023/06/22 07:55:15;;;;;;;14.80;13.40;;;;;;;27.01;51.03;99763.46;107321;1255;67888;-40
2023/06/22 07:57:43;;;;;;;14.50;12.70;;;;;;;27.09;49.97;99764.80;107327;1256;72671;-40
2023/06/22 08:00:15;;;;;;;14.50;12.50;;;;;;;27.17;48.85;99765.48;107235;1260;60379;-40
2023/06/22 08:02:45;;;;;;;14.00;12.60;;;;;;;27.24;47.48;99764.59;107205;1255;60372;-40
2023/06/22 08:05:14;;;;;;;15.30;13.50;;;;;;;27.33;48.27;99761.94;107200;1256;73865;-40
2023/06/22 08:07:50;;;;;;;14.20;12.80;;;;;;;27.40;48.55;99764.02;107268;1256;67604;-40
2023/06/22 08:10:18;;;;;;;14.00;12.30;;;;;;;27.51;48.37;99765.80;107367;1257;72677;-40
2023/06/22 08:12:46;;;;;;;13.00;11.70;;;;;;;27.65;47.29;99764.13;107220;1255;60400;-40
2023/06/22 08:15:13;;;;;;;15.20;11.10;;;;;;;27.76;45.91;99758.91;107274;1256;60441;-40
2023/06/22 08:17:41;;;;;;;11.60;10.50;;;;;;;27.87;45.83;99760.41;107224;1261;73938;-41
2023/06/22 08:20:11;;;;;;;12.80;10.70;;;;;;;27.99;44.05;99758.83;107276;1255;67739;-41
2023/06/22 08:22:43;;;;;;;11.60;10.30;;;;;;;28.08;43.48;99759.15;107191;1256;71526;-40
2023/06/22 08:25:11;;;;;;;11.00;9.90;;;;;;;28.17;42.41;99759.55;107242;1257;60290;-41
2023/06/22 08:27:39;;;;;;;17.40;9.80;;;;;;;28.23;40.81;99757.61;107119;1256;60502;-41
2023/06/22 08:30:10;;;;;;;10.30;9.30;;;;;;;28.27;39.78;99756.14;107335;1256;72767;-40
2023/06/22 08:32:38;;;;;;;10.00;9.00;;;;;;;28.36;40.19;99753.01;107266;1256;67538;-40
2023/06/22 08:35:08;;;;;;;9.60;8.50;;;;;;;28.48;39.79;99754.53;107362;1257;72808;-41
2023/06/22 08:37:36;;;;;;;9.80;8.30;;;;;;;28.67;38.29;99753.89;107321;1255;60493;-41
2023/06/22 08:40:08;;;;;;;10.60;9.20;;;;;;;28.86;37.31;99748.46;107131;1256;60304;-41
2023/06/22 08:42:36;;;;;;;10.30;9.20;;;;;;;29.05;36.41;99748.28;107234;1260;73878;-41
2023/06/22 08:45:05;;;;;;;10.60;9.10;;;;;;;29.25;36.92;99749.40;107178;1257;68037;-41
2023/06/22 08:47:32;;;;;;;10.80;9.30;;;;;;;29.40;36.48;99744.77;107181;1260;75093;-39
2023/06/22 08:50:03;;;;;;;12.60;9.60;;;;;;;29.51;35.44;99741.33;107252;1257;60320;-40
2023/06/22 08:52:31;;;;;;;11.00;9.50;;;;;;;29.56;34.71;99739.38;107240;1256;59987;-41
2023/06/22 08:54:59;;;;;;;10.50;9.40;;;;;;;29.63;35.71;99735.99;107189;1256;74648;-40
2023/06/22 08:57:27;;;;;;;11.60;9.70;;;;;;;29.73;35.83;99736.84;107160;1257;67633;-40
2023/06/22 08:59:58;;;;;;;14.20;9.00;;;;;;;29.82;35.17;99735.67;107195;1256;72721;-40
2023/06/22 09:02:30;;;;;;;9.90;8.70;;;;;;;29.85;34.35;99736.02;107367;1257;60518;-41
2023/06/22 09:04:59;;;;;;;11.60;8.60;;;;;;;29.89;34.65;99734.64;107115;1256;60470;-40
2023/06/22 09:07:27;;;;;;;9.40;8.50;;;;;;;29.93;34.86;99736.40;107086;1260;73900;-40
2023/06/22 09:09:55;;;;;;;9.90;8.90;;;;;;;29.94;34.72;99732.76;107061;1257;67567;-40
2023/06/22 09:12:25;;;;;;;11.00;8.90;;;;;;;29.97;35.55;99732.97;107010;1256;72697;-41
2023/06/22 09:14:53;;;;;;;9.80;8.60;;;;;;;30.07;35.73;99727.30;107040;1256;60385;-41
2023/06/22 09:17:22;;;;;;;9.90;8.90;;;;;;;30.20;35.26;99725.86;107070;1256;60531;-40
2023/06/22 09:19:50;;;;;;;9.90;8.90;;;;;;;30.31;35.75;99724.04;107288;1256;72725;-40
2023/06/22 09:22:17;;;;;;;10.70;9.60;;;;;;;30.42;35.26;99721.83;107303;1256;67733;-40
2023/06/22 09:24:45;;;;;;;11.40;9.80;;;;;;;30.45;35.78;99721.79;107247;1256;71054;-40
2023/06/22 09:27:13;;;;;;;10.10;8.40;;;;;;;30.53;35.97;99718.35;107239;1256;60423;-40
2023/06/22 09:29:40;;;;;;;10.10;9.10;;;;;;;30.64;35.63;99720.33;107276;1256;60457;-40
2023/06/22 09:32:08;;;;;;;9.10;8.30;;;;;;;30.67;34.36;99716.50;107238;1255;72630;-41
2023/06/22 09:34:36;;;;;;;9.50;8.50;;;;;;;30.65;35.43;99718.68;107202;1257;67180;-41
2023/06/22 09:37:04;;;;;;;10.00;9.00;;;;;;;30.68;34.55;99720.45;107265;1259;72611;-41
2023/06/22 09:39:32;;;;;;;10.00;9.00;;;;;;;30.62;35.45;99720.98;107246;1256;60321;-41
2023/06/22 09:42:00;;;;;;;10.80;9.20;;;;;;;30.53;35.82;99720.09;107269;1257;60274;-41
2023/06/22 09:44:27;;;;;;;10.30;9.30;;;;;;;30.52;36.30;99721.49;107270;1257;73854;-41
2023/06/22 09:46:55;;;;;;;11.00;9.00;;;;;;;30.54;36.23;99720.70;107211;1257;67887;-41
2023/06/22 09:49:23;;;;;;;10.90;9.80;;;;;;;30.51;36.41;99718.11;107014;1256;72678;-41
2023/06/22 09:52:11;;;;;;;11.90;9.20;;;;;;;30.45;36.01;99719.95;107163;1256;60209;-41
2023/06/22 09:54:39;;;;;;;10.50;8.80;;;;;;;30.32;35.23;99722.73;107247;1256;60506;-41
2023/06/22 09:57:06;;;;;;;10.20;9.20;;;;;;;30.22;35.16;99719.59;107289;1256;72648;-41
2023/06/22 09:59:34;;;;;;;9.70;8.80;;;;;;;30.18;35.27;99716.13;107165;1257;68206;-40
2023/06/22 10:02:02;;;;;;;10.70;8.80;;;;;;;30.26;35.88;99714.51;107173;1256;73018;-41
2023/06/22 10:04:29;;;;;;;11.20;8.80;;;;;;;30.41;35.78;99709.35;107208;1257;60409;-41
2023/06/22 10:06:58;;;;;;;9.10;8.30;;;;;;;30.55;35.05;99710.70;107274;1256;60524;-40
2023/06/22 10:09:25;;;;;;;8.70;7.80;;;;;;;30.64;33.79;99708.33;107270;1257;73831;-40
2023/06/22 10:11:53;;;;;;;8.40;7.50;;;;;;;30.68;32.49;99705.84;107228;1256;68038;-41
2023/06/22 10:14:21;;;;;;;7.80;6.60;;;;;;;30.70;31.76;99700.36;107205;1256;72479;-40
2023/06/22 10:16:49;;;;;;;8.40;7.50;;;;;;;30.79;31.58;99694.67;107254;1256;60739;-41
2023/06/22 10:19:16;;;;;;;7.90;7.10;;;;;;;30.93;30.74;99686.35;107315;1259;59958;-41
2023/06/22 10:21:44;;;;;;;7.70;6.70;;;;;;;31.00;30.49;99681.52;107256;1257;73843;-41
2023/06/22 10:24:12;;;;;;;7.90;7.10;;;;;;;31.09;30.74;99683.88;107243;1256;67576;-41
2023/06/22 10:26:39;;;;;;;9.40;7.20;;;;;;;31.23;31.18;99684.73;107225;1257;72991;-40
2023/06/22 10:29:07;;;;;;;7.90;7.10;;;;;;;31.38;30.82;99680.52;107246;1257;60169;-40
2023/06/22 10:31:43;;;;;;;9.00;7.20;;;;;;;31.56;31.53;99676.17;107191;1260;60291;-41
2023/06/22 10:34:11;;;;;;;8.70;7.80;;;;;;;31.67;31.33;99675.36;107243;1260;73807;-41
2023/06/22 10:36:39;;;;;;;7.80;6.80;;;;;;;31.74;30.35;99673.02;106920;1255;422908;-41
2023/06/22 10:40:46;;;;;;;7.90;7.20;;;;;;;31.75;29.49;99670.80;104314;1290;600991;-40
2023/06/22 10:43:14;;;;;;;7.20;6.50;;;;;;;31.62;30.37;99673.53;106655;1265;60094;-40
2023/06/22 10:45:42;;;;;;;8.10;7.30;;;;;;;31.37;30.64;99666.86;106677;1264;59339;-40
2023/06/22 10:48:09;;;;;;;10.60;7.20;;;;;;;31.06;31.38;99665.16;106681;1264;72249;-40
2023/06/22 10:50:37;;;;;;;7.90;7.10;;;;;;;30.82;31.19;99665.70;106722;1263;67624;-41
2023/06/22 10:53:05;;;;;;;8.70;7.60;;;;;;;30.67;32.37;99663.39;106751;1264;71486;-41
2023/06/22 10:55:32;;;;;;;8.20;7.40;;;;;;;30.60;33.40;99660.10;106911;1260;208162;-41
2023/06/22 10:58:20;;;;;;;7.60;6.90;;;;;;;30.70;33.34;99658.19;107057;1258;62201;-41
2023/06/22 11:00:49;;;;;;;8.90;6.40;;;;;;;30.90;32.69;99653.88;107073;1260;71494;-42
2023/06/22 11:03:20;;;;;;;6.90;6.20;;;;;;;31.16;29.44;99651.45;107132;1260;67890;-41
2023/06/22 11:05:48;;;;;;;6.80;5.90;;;;;;;31.35;29.35;99650.69;107043;1261;72117;-41
2023/06/22 11:08:16;;;;;;;7.00;6.40;;;;;;;31.40;28.38;99648.85;107037;1264;60144;-41
2023/06/22 11:10:43;;;;;;;7.40;6.60;;;;;;;31.36;28.28;99648.25;106960;1260;59679;-41
2023/06/22 11:13:11;;;;;;;7.10;6.40;;;;;;;31.34;28.80;99650.48;106984;1259;72526;-41
2023/06/22 11:15:40;;;;;;;6.60;6.00;;;;;;;31.41;28.98;99644.42;107017;1258;68268;-40
2023/06/22 11:18:08;;;;;;;7.20;6.40;;;;;;;31.61;28.09;99641.92;106980;1260;73217;-40
2023/06/22 11:20:38;;;;;;;6.90;5.50;;;;;;;31.93;26.88;99635.96;106978;1260;60237;-41
2023/06/22 11:23:07;;;;;;;7.10;6.40;;;;;;;32.20;26.20;99635.70;106960;1259;59365;-41
2023/06/22 11:25:34;;;;;;;7.20;6.50;;;;;;;32.32;27.19;99637.88;107045;1260;73174;-42